Time;durP1;ratioP1;P1;durP2;ratioP2;P2;SDS_P1;SDS_P2;PMS_P1;PMS_P2;Temp;Humidity;BMP_temperature;BMP_pressure;BME280_temperature;BME280_humidity;BME280_pressure;Samples;Min_cycle;Max_cycle;Signal;HPM_P1;HPM_P2
2021/08/05 00:01:00;;;;;;;9.13;3.90;;;;;;;15.31;65.81;99971.22;5055002;28;20427;-45
2021/08/05 00:03:26;;;;;;;8.23;3.60;;;;;;;15.33;65.78;99985.41;5066768;28;20132;-49
2021/08/05 00:05:52;;;;;;;4.78;3.35;;;;;;;15.31;65.74;99981.13;5059630;28;20032;-55
2021/08/05 00:08:17;;;;;;;4.88;3.10;;;;;;;15.28;65.91;99971.53;5060043;28;20064;-47
2021/08/05 00:10:43;;;;;;;8.85;3.55;;;;;;;15.29;66.02;99980.44;5066965;28;20028;-50
2021/08/05 00:13:08;;;;;;;4.25;3.47;;;;;;;15.27;65.93;99980.63;5053012;28;20119;-47
2021/08/05 00:15:34;;;;;;;5.40;3.53;;;;;;;15.25;66.19;99973.66;5064880;28;20040;-47
2021/08/05 00:18:00;;;;;;;11.43;4.10;;;;;;;15.24;66.46;99986.31;5060781;28;20063;-50
2021/08/05 00:20:25;;;;;;;5.30;3.53;;;;;;;15.15;66.35;99981.81;5058785;28;20071;-53
2021/08/05 00:22:51;;;;;;;6.32;3.47;;;;;;;15.20;66.29;99987.63;5067604;28;20460;-51
2021/08/05 00:25:16;;;;;;;3.85;3.47;;;;;;;15.18;66.64;99987.75;5054281;28;20025;-46
2021/08/05 00:27:42;;;;;;;5.20;3.50;;;;;;;15.18;66.36;99993.16;5064342;28;20503;-46
2021/08/05 00:30:09;;;;;;;7.40;3.53;;;;;;;15.15;66.76;99997.97;5061084;28;20052;-46
2021/08/05 00:32:35;;;;;;;4.30;3.13;;;;;;;15.13;67.07;99981.97;5056047;28;20064;-47
2021/08/05 00:35:01;;;;;;;6.28;3.53;;;;;;;15.14;66.86;99980.09;5066294;28;20052;-49
2021/08/05 00:37:26;;;;;;;6.22;3.40;;;;;;;15.15;67.45;99974.56;5054892;28;20055;-48
2021/08/05 00:39:52;;;;;;;8.02;4.10;;;;;;;15.13;67.05;99978.41;5060982;28;20093;-48
2021/08/05 00:42:17;;;;;;;9.48;3.72;;;;;;;15.13;67.00;99973.00;5048917;28;20045;-49
2021/08/05 00:44:43;;;;;;;7.50;3.90;;;;;;;15.11;67.00;99981.28;5061403;28;20116;-45
2021/08/05 00:47:08;;;;;;;6.82;3.83;;;;;;;15.12;67.13;99979.41;5065708;28;20480;-48
2021/08/05 00:49:34;;;;;;;4.53;3.65;;;;;;;15.11;67.07;99972.31;5055021;28;20035;-47
2021/08/05 00:52:00;;;;;;;7.25;3.72;;;;;;;15.12;67.35;99976.72;5060835;28;20101;-49
2021/08/05 00:54:26;;;;;;;9.13;3.88;;;;;;;15.10;67.61;99978.72;5063560;28;20529;-46
2021/08/05 00:56:51;;;;;;;7.07;3.83;;;;;;;15.07;67.75;99988.81;5053792;28;20032;-48
2021/08/05 00:59:17;;;;;;;6.95;3.80;;;;;;;15.05;68.02;99993.50;5067572;28;20475;-51
2021/08/05 01:01:52;;;;;;;6.78;3.50;;;;;;;15.11;67.82;100001.97;5057481;28;20144;-46
2021/08/05 01:04:18;;;;;;;;;;;;;;;15.34;65.96;99999.75;5059282;28;20550;-51
2021/08/05 01:07:03;;;;;;;7.23;3.77;;;;;;;15.20;67.04;99990.31;5065915;28;19912;-48
2021/08/05 01:09:34;;;;;;;5.87;3.40;;;;;;;15.07;67.86;99996.88;5040611;28;20460;-49
2021/08/05 01:11:59;;;;;;;7.63;3.78;;;;;;;15.06;68.04;99994.31;5060369;28;20029;-50
2021/08/05 01:14:30;;;;;;;7.93;3.92;;;;;;;15.05;68.17;99993.50;5062646;28;20563;-45
2021/08/05 01:16:56;;;;;;;8.88;3.75;;;;;;;14.99;68.44;99998.63;5053865;28;20049;-47
2021/08/05 01:19:47;;;;;;;7.22;3.92;;;;;;;15.11;68.13;99992.06;5066972;28;20033;-46
2021/08/05 01:22:54;;;;;;;9.07;3.88;;;;;;;14.96;68.07;99972.84;5061004;28;20399;-46
2021/08/05 01:25:29;;;;;;;8.57;3.88;;;;;;;14.98;68.88;99989.72;5038295;28;20086;-49
2021/08/05 01:27:55;;;;;;;;;;;;;;;15.24;66.50;99996.25;5062643;28;20099;-48
2021/08/05 01:30:20;;;;;;;8.10;3.80;;;;;;;15.00;68.17;99997.63;5062173;28;20318;-48
2021/08/05 01:32:47;;;;;;;9.48;4.05;;;;;;;14.91;69.00;100002.91;5054081;28;20033;-47
2021/08/05 01:35:13;;;;;;;6.72;4.03;;;;;;;14.88;69.21;100005.06;5067458;28;20476;-48
2021/08/05 01:37:41;;;;;;;8.20;4.15;;;;;;;14.88;69.17;99992.44;5064287;28;20021;-47
2021/08/05 01:40:08;;;;;;;6.28;3.70;;;;;;;14.84;69.28;100001.81;5060347;28;20063;-48
2021/08/05 01:42:34;;;;;;;7.35;4.10;;;;;;;14.83;69.52;100000.13;5069125;28;20392;-48
2021/08/05 01:45:00;;;;;;;9.48;4.30;;;;;;;14.85;69.81;100005.34;5053350;28;20043;-46
2021/08/05 01:47:28;;;;;;;6.50;3.95;;;;;;;14.84;69.80;100003.66;5065986;28;20432;-44
2021/08/05 01:49:54;;;;;;;7.93;4.05;;;;;;;14.82;70.04;100009.19;5058648;28;20111;-50
2021/08/05 01:52:20;;;;;;;7.78;4.47;;;;;;;14.86;69.63;100017.84;5057712;28;20039;-48
2021/08/05 01:54:46;;;;;;;9.07;4.60;;;;;;;14.86;69.69;100009.75;5065830;28;20028;-47
2021/08/05 01:57:14;;;;;;;8.15;4.30;;;;;;;14.88;70.01;100011.31;5053842;28;20036;-49
2021/08/05 01:59:40;;;;;;;6.72;4.75;;;;;;;14.88;69.86;100002.34;5062720;28;20025;-51
2021/08/05 02:02:09;;;;;;;12.55;4.82;;;;;;;14.97;69.46;100006.00;5060037;28;20028;-48
2021/08/05 02:05:04;;;;;;;8.43;5.18;;;;;;;15.07;69.24;100004.97;5055588;28;20583;-45
2021/08/05 02:07:54;;;;;;;7.35;4.55;;;;;;;15.12;69.11;100006.38;5040556;28;20396;-48
2021/08/05 02:10:39;;;;;;;8.25;4.50;;;;;;;15.18;69.05;100001.25;5057864;28;20029;-47
2021/08/05 02:13:17;;;;;;;8.95;4.85;;;;;;;15.13;69.25;99994.59;5066143;28;20049;-47
2021/08/05 02:15:49;;;;;;;10.50;4.72;;;;;;;15.19;69.35;99993.97;5056987;28;20470;-48
2021/08/05 02:18:15;;;;;;;9.02;5.32;;;;;;;15.15;69.40;99998.84;5057997;28;20033;-47
2021/08/05 02:20:45;;;;;;;10.77;5.22;;;;;;;15.24;69.33;99994.41;5065799;28;20028;-49
2021/08/05 02:23:13;;;;;;;10.00;4.93;;;;;;;15.24;69.31;100009.72;5056679;28;20090;-45
2021/08/05 02:25:39;;;;;;;10.05;4.60;;;;;;;15.29;69.21;99999.31;5066469;28;20032;-48
2021/08/05 02:28:06;;;;;;;9.55;4.60;;;;;;;15.35;69.19;100007.66;5062903;28;20025;-49
2021/08/05 02:30:32;;;;;;;7.95;4.88;;;;;;;15.41;69.27;100005.38;5059718;28;20057;-48
2021/08/05 02:32:58;;;;;;;8.52;4.40;;;;;;;15.50;68.93;100007.19;5069455;28;20068;-48
2021/08/05 02:35:26;;;;;;;8.43;5.22;;;;;;;15.59;68.41;100006.25;5057591;28;20029;-49
2021/08/05 02:37:52;;;;;;;10.98;5.75;;;;;;;15.63;68.32;100007.63;5064351;28;20075;-46
2021/08/05 02:40:17;;;;;;;11.27;4.97;;;;;;;15.68;68.09;100000.97;5064699;28;20119;-48
2021/08/05 02:42:46;;;;;;;13.45;5.25;;;;;;;15.80;68.22;100013.22;5069696;28;20032;-48
2021/08/05 02:45:13;;;;;;;8.45;4.70;;;;;;;15.83;68.21;100014.78;5055955;28;20028;-46
2021/08/05 02:47:39;;;;;;;9.88;5.38;;;;;;;15.86;67.90;100011.75;5066298;28;20389;-45
2021/08/05 02:50:06;;;;;;;9.23;4.55;;;;;;;15.89;67.61;100001.50;5061967;28;20028;-49
2021/08/05 02:52:33;;;;;;;9.90;4.97;;;;;;;16.01;67.16;100012.09;5058723;28;20044;-47
2021/08/05 02:55:00;;;;;;;9.50;5.18;;;;;;;16.06;67.36;100007.94;5069141;28;20357;-47
2021/08/05 02:57:26;;;;;;;10.02;5.75;;;;;;;16.14;66.93;100014.41;5057243;28;20035;-47
2021/08/05 02:59:52;;;;;;;8.40;4.53;;;;;;;16.21;67.12;100008.22;5064935;28;20033;-52
2021/08/05 03:02:18;;;;;;;7.38;4.90;;;;;;;16.30;66.30;100005.59;5064786;28;20066;-49
2021/08/05 03:04:44;;;;;;;11.07;4.70;;;;;;;16.41;65.93;100016.16;5057080;28;20033;-51
2021/08/05 03:07:10;;;;;;;8.88;5.15;;;;;;;16.49;65.50;100010.81;5068960;28;20020;-46
2021/08/05 03:09:35;;;;;;;8.32;5.47;;;;;;;16.55;64.79;99989.53;5057867;28;20040;-51
2021/08/05 03:12:01;;;;;;;9.32;5.18;;;;;;;16.81;64.60;100000.38;5063368;28;20068;-44
2021/08/05 03:14:27;;;;;;;10.18;5.22;;;;;;;16.98;64.04;100001.31;5065723;28;20394;-48
2021/08/05 03:16:52;;;;;;;9.13;5.38;;;;;;;17.15;64.05;100001.41;5055951;28;20045;-55
2021/08/05 03:19:18;;;;;;;7.60;5.10;;;;;;;17.33;62.63;99996.72;5068962;28;20109;-50
2021/08/05 03:21:43;;;;;;;10.55;5.40;;;;;;;17.52;62.77;100005.56;5059304;28;20028;-50
2021/08/05 03:24:09;;;;;;;12.35;5.20;;;;;;;17.71;61.15;99999.00;5061484;28;20039;-48
2021/08/05 03:26:34;;;;;;;10.10;4.82;;;;;;;17.84;60.88;99984.97;5065687;28;20448;-46
2021/08/05 03:29:01;;;;;;;8.55;4.88;;;;;;;18.07;60.35;99996.06;5055541;28;20025;-47
2021/08/05 03:31:26;;;;;;;7.22;4.65;;;;;;;18.26;58.83;99994.03;5066848;28;20029;-50
2021/08/05 03:33:52;;;;;;;13.65;4.53;;;;;;;18.27;57.49;99970.47;5060812;28;20371;-47
2021/08/05 03:36:18;;;;;;;8.20;4.03;;;;;;;18.55;57.19;99989.06;5060506;28;20393;-45
2021/08/05 03:38:43;;;;;;;11.73;4.65;;;;;;;18.65;57.44;99987.03;5067345;28;20032;-46
2021/08/05 03:41:09;;;;;;;10.75;4.68;;;;;;;18.78;56.71;99992.75;5055479;28;20094;-49
2021/08/05 03:43:35;;;;;;;10.38;4.60;;;;;;;18.93;56.33;99981.19;5066269;28;20051;-49
2021/08/05 03:46:01;;;;;;;7.13;4.57;;;;;;;19.23;56.09;99986.84;5061181;28;20052;-50
2021/08/05 03:48:26;;;;;;;7.97;5.10;;;;;;;19.65;55.34;99990.19;5058737;28;20116;-48
2021/08/05 03:50:53;;;;;;;10.60;5.03;;;;;;;20.43;52.45;99979.25;5068184;28;20120;-52
2021/08/05 03:53:19;;;;;;;9.45;4.60;;;;;;;21.58;49.48;99984.38;5055362;28;20105;-50
2021/08/05 03:55:44;;;;;;;12.48;4.10;;;;;;;22.80;45.63;99978.97;5064653;28;20433;-47
2021/08/05 03:58:10;;;;;;;4.90;3.13;;;;;;;23.59;42.38;99977.88;5062161;28;20020;-50
2021/08/05 04:00:36;;;;;;;5.68;3.05;;;;;;;24.38;40.62;99972.75;5057605;28;20091;-46
2021/08/05 04:03:02;;;;;;;5.57;2.90;;;;;;;25.18;38.75;99985.41;5068309;28;20032;-49
2021/08/05 04:05:28;;;;;;;4.13;2.85;;;;;;;26.11;36.72;99976.91;5056035;28;20043;-53
2021/08/05 04:07:54;;;;;;;6.20;2.97;;;;;;;27.02;35.05;99968.28;5062135;28;20033;-49
2021/08/05 04:10:19;;;;;;;5.85;2.92;;;;;;;28.09;32.97;99965.13;5063740;28;20112;-48
2021/08/05 04:12:45;;;;;;;5.15;2.50;;;;;;;28.90;31.33;99970.09;5055585;28;20045;-46
2021/08/05 04:15:10;;;;;;;6.15;3.00;;;;;;;29.44;30.40;99973.69;5067346;28;20098;-49
2021/08/05 04:17:37;;;;;;;3.75;2.75;;;;;;;30.02;29.34;99970.88;5057441;28;20459;-50
2021/08/05 04:20:04;;;;;;;4.95;2.67;;;;;;;30.88;27.91;99964.19;5061176;28;20135;-48
2021/08/05 04:22:30;;;;;;;2.45;1.90;;;;;;;31.76;25.96;99967.16;5064527;28;20513;-49
2021/08/05 04:24:55;;;;;;;3.72;2.60;;;;;;;32.25;25.33;99951.53;5054122;28;20037;-47
2021/08/05 04:27:21;;;;;;;3.60;2.78;;;;;;;32.46;25.08;99958.09;5066431;28;20040;-49
2021/08/05 04:29:46;;;;;;;5.28;2.63;;;;;;;33.14;23.86;99962.06;5057575;28;20032;-50
2021/08/05 04:32:12;;;;;;;5.05;2.25;;;;;;;33.90;22.71;99966.16;5059692;28;20090;-49
2021/08/05 04:34:37;;;;;;;7.40;3.40;;;;;;;34.53;22.00;99955.06;5065664;28;20377;-49
2021/08/05 04:37:03;;;;;;;3.33;2.65;;;;;;;35.18;21.02;99951.50;5054509;28;20033;-51
2021/08/05 04:39:29;;;;;;;2.97;2.40;;;;;;;35.50;20.56;99947.44;5065836;28;20497;-48
2021/08/05 04:41:54;;;;;;;3.05;2.40;;;;;;;36.21;19.49;99949.97;5059250;28;20028;-48
2021/08/05 04:44:20;;;;;;;3.47;2.30;;;;;;;36.58;19.18;99942.09;5057943;28;20161;-50
2021/08/05 04:46:45;;;;;;;4.15;2.08;;;;;;;36.82;18.67;99946.84;5065513;28;20107;-48
2021/08/05 04:49:11;;;;;;;4.80;2.50;;;;;;;37.13;18.48;99947.31;5053519;28;20031;-49
2021/08/05 04:51:36;;;;;;;7.30;2.65;;;;;;;37.12;18.20;99950.41;5064740;28;20028;-50
2021/08/05 04:54:03;;;;;;;2.80;1.75;;;;;;;37.24;18.30;99953.59;5052593;28;20254;-46
2021/08/05 04:56:30;;;;;;;2.47;2.20;;;;;;;37.41;17.95;99955.03;5056957;28;20020;-50
2021/08/05 04:58:55;;;;;;;4.05;2.35;;;;;;;37.72;17.93;99949.84;5066654;28;20040;-51
2021/08/05 05:01:21;;;;;;;2.25;2.05;;;;;;;38.13;17.34;99953.97;5054518;28;20024;-56
2021/08/05 05:03:46;;;;;;;2.15;1.98;;;;;;;38.37;16.97;99952.13;5063561;28;20102;-48
2021/08/05 05:06:12;;;;;;;2.47;2.28;;;;;;;38.87;16.76;99957.06;5060916;28;20098;-46
2021/08/05 05:08:37;;;;;;;2.10;1.83;;;;;;;39.48;15.69;99954.09;5055978;28;20060;-46
2021/08/05 05:11:03;;;;;;;4.63;2.25;;;;;;;40.04;15.60;99949.09;5066747;28;20039;-48
2021/08/05 05:13:29;;;;;;;3.83;2.83;;;;;;;40.55;14.90;99957.31;5054857;28;20168;-50
2021/08/05 05:15:54;;;;;;;2.35;2.15;;;;;;;41.12;14.14;99957.66;5061738;28;20041;-50
2021/08/05 05:18:22;;;;;;;3.10;2.22;;;;;;;41.88;13.92;99959.22;5062143;28;20035;-50
2021/08/05 05:20:48;;;;;;;2.75;2.53;;;;;;;42.14;13.10;99961.19;5054227;28;20037;-51
2021/08/05 05:23:14;;;;;;;3.80;2.58;;;;;;;42.43;12.90;99965.22;5066752;28;20098;-54
2021/08/05 05:25:40;;;;;;;5.80;3.10;;;;;;;42.81;12.63;99960.81;5057048;28;20535;-47
2021/08/05 05:28:06;;;;;;;4.53;3.33;;;;;;;43.15;12.15;99955.28;5060455;28;20048;-49
2021/08/05 05:30:31;;;;;;;5.28;3.25;;;;;;;43.72;11.67;99948.25;5063654;28;20024;-51
2021/08/05 05:32:57;;;;;;;4.72;3.40;;;;;;;43.99;11.42;99948.00;5053599;28;20461;-47
2021/08/05 05:35:23;;;;;;;4.20;3.65;;;;;;;44.37;11.08;99946.09;5066228;28;20036;-54
2021/08/05 05:37:51;;;;;;;5.70;3.33;;;;;;;45.05;11.15;99958.03;5057052;28;20039;-50
2021/08/05 05:40:17;;;;;;;6.10;3.80;;;;;;;45.19;10.27;99952.81;5056930;28;20067;-53
2021/08/05 05:42:42;;;;;;;4.45;3.47;;;;;;;45.07;10.33;99944.38;5065115;28;20029;-51
2021/08/05 05:45:10;;;;;;;5.80;3.28;;;;;;;45.42;10.32;99955.16;5052612;28;20029;-50
2021/08/05 05:47:37;;;;;;;5.03;3.72;;;;;;;45.51;9.86;99941.69;5063883;28;20123;-49
2021/08/05 05:50:04;;;;;;;3.95;2.97;;;;;;;45.40;10.05;99940.56;5059741;28;20457;-48
2021/08/05 05:52:29;;;;;;;3.28;2.92;;;;;;;45.59;9.72;99937.91;5056119;28;20025;-46
2021/08/05 05:54:55;;;;;;;3.00;2.70;;;;;;;46.39;9.53;99936.41;5066451;28;20383;-54
2021/08/05 05:57:20;;;;;;;3.25;2.67;;;;;;;46.64;8.70;99934.22;5058328;28;20151;-49
2021/08/05 05:59:46;;;;;;;3.53;2.67;;;;;;;46.73;8.70;99926.34;5063810;28;20090;-50
2021/08/05 06:02:11;;;;;;;3.95;3.15;;;;;;;46.52;8.55;99908.84;5052971;28;20037;-56
2021/08/05 06:04:37;;;;;;;4.85;3.10;;;;;;;46.94;8.46;99928.06;5069630;28;20036;-49
2021/08/05 06:07:14;;;;;;;3.35;3.05;;;;;;;47.30;8.22;99922.38;5039690;28;20400;-55
2021/08/05 06:09:39;;;;;;;5.88;3.03;;;;;;;47.58;7.93;99922.16;5049181;28;20043;-51
2021/08/05 06:12:05;;;;;;;4.72;3.20;;;;;;;47.68;7.63;99914.25;5061602;28;20452;-52
2021/08/05 06:14:30;;;;;;;8.48;4.50;;;;;;;46.66;8.22;99919.69;5063435;28;20064;-53
2021/08/05 06:16:56;;;;;;;7.13;3.92;;;;;;;46.13;8.89;99915.13;5069550;28;20041;-52
2021/08/05 06:19:21;;;;;;;4.40;4.00;;;;;;;46.86;8.00;99909.25;5051584;28;20032;-52
2021/08/05 06:21:47;;;;;;;7.60;3.95;;;;;;;47.86;7.62;99908.91;5045775;28;20096;-50
2021/08/05 06:24:13;;;;;;;10.65;4.40;;;;;;;48.71;6.90;99913.63;5045730;28;20033;-52
2021/08/05 06:26:40;;;;;;;5.40;4.22;;;;;;;49.08;7.21;99929.22;5046403;28;20384;-49
2021/08/05 06:29:06;;;;;;;6.60;3.85;;;;;;;48.87;6.65;99924.03;5049193;28;20044;-50
2021/08/05 06:31:32;;;;;;;8.80;4.28;;;;;;;49.01;6.96;99914.88;5045475;28;20040;-48
2021/08/05 06:33:58;;;;;;;11.57;3.65;;;;;;;48.85;6.77;99921.59;5046098;28;20388;-52
2021/08/05 06:36:24;;;;;;;8.43;4.40;;;;;;;49.12;7.25;99909.34;5045226;28;20025;-55
2021/08/05 06:38:50;;;;;;;13.98;4.65;;;;;;;49.56;6.85;99920.09;5046066;28;20029;-52
2021/08/05 06:41:16;;;;;;;7.40;4.15;;;;;;;50.07;6.26;99928.38;5038848;28;20033;-56
2021/08/05 06:43:42;;;;;;;10.55;4.03;;;;;;;50.05;6.20;99905.97;5037624;28;20033;-53
2021/08/05 06:46:07;;;;;;;4.75;3.20;;;;;;;50.29;5.96;99903.75;5037782;28;20049;-50
2021/08/05 06:48:33;;;;;;;7.32;3.55;;;;;;;50.12;5.96;99919.44;5039844;28;20033;-52
2021/08/05 06:50:59;;;;;;;8.73;4.78;;;;;;;50.49;5.61;99917.75;5053413;28;20413;-49
2021/08/05 06:53:24;;;;;;;7.88;4.03;;;;;;;51.01;5.50;99920.56;5046276;28;20041;-49
2021/08/05 06:55:50;;;;;;;6.05;3.70;;;;;;;51.71;5.41;99921.66;5061985;28;20024;-55
2021/08/05 06:58:19;;;;;;;10.00;4.17;;;;;;;52.22;4.95;99923.38;5059803;28;20036;-51
2021/08/05 07:00:48;;;;;;;6.88;4.30;;;;;;;52.20;4.98;99919.28;5059733;28;20613;-53
2021/08/05 07:03:14;;;;;;;6.10;3.90;;;;;;;51.80;4.67;99902.91;5062589;28;20032;-52
2021/08/05 07:05:40;;;;;;;6.25;3.95;;;;;;;51.50;5.06;99901.22;5068439;28;20483;-54
2021/08/05 07:08:05;;;;;;;5.47;3.47;;;;;;;51.74;4.82;99901.69;5054352;28;20031;-55
2021/08/05 07:10:31;;;;;;;6.57;2.72;;;;;;;52.12;4.65;99884.22;5047978;28;20032;-49
2021/08/05 07:12:56;;;;;;;5.40;2.88;;;;;;;52.08;4.75;99901.31;5053075;28;20160;-51
2021/08/05 07:15:22;;;;;;;5.30;3.35;;;;;;;52.16;4.28;99895.63;5053174;28;20048;-51
2021/08/05 07:17:48;;;;;;;4.68;2.97;;;;;;;52.41;4.44;99895.63;5049235;28;20056;-50
2021/08/05 07:20:15;;;;;;;5.75;3.50;;;;;;;52.74;4.32;99905.00;5053103;28;20054;-47
2021/08/05 07:22:42;;;;;;;4.75;3.33;;;;;;;52.91;4.05;99888.16;5051035;28;20547;-49
2021/08/05 07:25:09;;;;;;;3.90;2.95;;;;;;;52.89;4.09;99882.06;5050765;28;20033;-46
2021/08/05 07:27:36;;;;;;;3.78;3.35;;;;;;;52.85;3.94;99904.97;5052302;28;20021;-52
2021/08/05 07:30:04;;;;;;;3.83;3.58;;;;;;;52.18;4.05;99898.91;5052451;28;20098;-55
2021/08/05 07:32:30;;;;;;;5.15;4.07;;;;;;;52.24;4.24;99891.53;5051029;28;20025;-51
2021/08/05 07:34:55;;;;;;;4.82;4.43;;;;;;;52.27;4.21;99889.91;5051622;28;20479;-52
2021/08/05 07:37:20;;;;;;;6.13;3.80;;;;;;;51.47;4.78;99866.97;5051618;28;20029;-52
2021/08/05 07:39:46;;;;;;;6.65;4.00;;;;;;;49.90;5.59;99870.03;5051560;28;20078;-57
2021/08/05 07:42:13;;;;;;;5.05;4.50;;;;;;;48.53;6.68;99861.44;5051773;28;20083;-54
2021/08/05 07:44:39;;;;;;;6.05;3.72;;;;;;;47.96;6.79;99864.91;5050343;28;20037;-54
2021/08/05 07:47:05;;;;;;;5.22;3.80;;;;;;;48.40;6.17;99863.66;5051013;28;20032;-55
2021/08/05 07:49:30;;;;;;;4.15;3.70;;;;;;;48.71;6.20;99865.31;5051450;28;20029;-60
2021/08/05 07:51:56;;;;;;;9.05;4.05;;;;;;;47.65;7.18;99866.78;5050991;28;20033;-58
2021/08/05 07:54:22;;;;;;;4.90;3.38;;;;;;;46.37;7.48;99880.16;5051549;28;20025;-55
2021/08/05 07:56:47;;;;;;;8.82;3.30;;;;;;;44.02;9.14;99868.34;5051066;28;20032;-51
2021/08/05 07:59:13;;;;;;;5.10;2.78;;;;;;;41.51;10.26;99866.03;5050867;28;20552;-56
2021/08/05 08:01:38;;;;;;;4.13;2.72;;;;;;;39.52;12.47;99868.28;5051630;28;20021;-55
2021/08/05 08:04:04;;;;;;;3.58;2.60;;;;;;;38.18;13.19;99875.59;5050697;28;20035;-54
2021/08/05 08:06:29;;;;;;;6.15;2.78;;;;;;;37.35;14.39;99871.34;5050630;28;20232;-59
2021/08/05 08:08:55;;;;;;;6.90;2.80;;;;;;;36.57;15.07;99867.94;5050278;28;20033;-50
2021/08/05 08:11:23;;;;;;;4.72;2.92;;;;;;;35.43;16.30;99882.88;5051745;28;20036;-54
2021/08/05 08:13:50;;;;;;;4.68;3.28;;;;;;;34.06;18.04;99882.88;5051679;28;20059;-54
2021/08/05 08:16:21;;;;;;;4.22;2.85;;;;;;;33.16;18.56;99890.50;5051398;28;20378;-52
2021/08/05 08:18:48;;;;;;;8.05;3.63;;;;;;;32.38;19.40;99881.00;5049544;28;20473;-53
2021/08/05 08:21:14;;;;;;;8.18;2.75;;;;;;;32.03;20.43;99872.19;5051887;28;20402;-55
2021/08/05 08:23:40;;;;;;;4.95;2.78;;;;;;;31.74;21.04;99861.41;5051389;28;20072;-54
2021/08/05 08:26:06;;;;;;;5.70;2.83;;;;;;;31.45;21.20;99881.09;5043259;28;20101;-54
2021/08/05 08:28:32;;;;;;;8.05;3.05;;;;;;;30.99;21.19;99878.63;5038923;28;20037;-54
2021/08/05 08:30:57;;;;;;;5.32;3.00;;;;;;;30.56;22.19;99872.81;5038518;28;20028;-52
2021/08/05 08:33:23;;;;;;;8.52;2.90;;;;;;;30.38;22.02;99860.97;5041468;28;20043;-55
2021/08/05 08:35:48;;;;;;;9.93;2.33;;;;;;;30.58;22.38;99881.69;5039590;28;20029;-54
2021/08/05 08:38:14;;;;;;;5.60;2.88;;;;;;;30.85;22.61;99879.03;5040041;28;20028;-56
2021/08/05 08:40:39;;;;;;;4.50;2.70;;;;;;;31.01;22.14;99854.34;5038619;28;20630;-55
2021/08/05 08:43:05;;;;;;;5.85;3.00;;;;;;;31.44;22.07;99879.41;5040517;28;20396;-56
2021/08/05 08:45:31;;;;;;;5.95;3.67;;;;;;;31.48;22.19;99866.72;5040577;28;20021;-53
2021/08/05 08:47:59;;;;;;;8.18;3.13;;;;;;;31.62;21.89;99867.13;5041102;28;20171;-56
2021/08/05 08:50:27;;;;;;;5.93;3.78;;;;;;;31.12;22.15;99838.69;5038926;28;20385;-54
2021/08/05 08:52:55;;;;;;;3.53;2.92;;;;;;;31.10;22.95;99876.81;5040392;28;20033;-52
2021/08/05 08:55:22;;;;;;;6.60;2.95;;;;;;;30.70;23.42;99876.94;5040884;28;20032;-51
2021/08/05 08:57:50;;;;;;;10.18;3.47;;;;;;;30.54;23.36;99875.88;5039342;28;20475;-48
2021/08/05 09:00:16;;;;;;;7.18;3.08;;;;;;;30.21;23.71;99866.56;5039529;28;20029;-49
2021/08/05 09:02:46;;;;;;;6.95;3.28;;;;;;;29.70;24.49;99872.09;5040627;28;20091;-54
2021/08/05 09:05:12;;;;;;;4.43;2.60;;;;;;;29.56;24.76;99866.06;5039768;28;20037;-50
2021/08/05 09:07:38;;;;;;;7.88;3.00;;;;;;;29.17;25.44;99863.94;5039667;28;20048;-50
2021/08/05 09:10:04;;;;;;;9.40;3.30;;;;;;;29.03;25.88;99864.25;5040823;28;20025;-49
2021/08/05 09:12:30;;;;;;;5.57;3.00;;;;;;;29.00;26.45;99862.00;5039226;28;20108;-46
2021/08/05 09:14:55;;;;;;;10.05;3.45;;;;;;;29.13;25.67;99858.09;5044380;28;20136;-49
2021/08/05 09:17:30;;;;;;;6.28;2.70;;;;;;;29.36;25.68;99859.88;5042497;28;20415;-49
2021/08/05 09:20:02;;;;;;;7.25;2.75;;;;;;;29.53;25.22;99866.53;5050727;28;20033;-46
2021/08/05 09:22:30;;;;;;;7.68;2.58;;;;;;;29.45;25.19;99856.78;5050062;28;20029;-49
2021/08/05 09:24:56;;;;;;;7.32;3.00;;;;;;;29.34;25.80;99861.25;5041009;28;20489;-55
2021/08/05 09:27:32;;;;;;;7.15;2.60;;;;;;;29.49;25.25;99857.94;5032062;28;20043;-45
2021/08/05 09:29:59;;;;;;;7.07;2.60;;;;;;;29.32;25.18;99853.19;5033117;28;20072;-45
2021/08/05 09:32:26;;;;;;;8.85;2.42;;;;;;;29.25;25.47;99855.28;5035546;28;20075;-47
2021/08/05 09:35:04;;;;;;;4.40;2.50;;;;;;;29.44;24.99;99849.59;5035629;28;20036;-51
2021/08/05 09:37:40;;;;;;;4.18;2.17;;;;;;;29.62;24.81;99848.50;5035091;28;20029;-50
2021/08/05 09:40:17;;;;;;;5.30;2.45;;;;;;;29.65;24.42;99848.81;5032672;28;20029;-53
2021/08/05 09:42:57;;;;;;;5.88;2.33;;;;;;;29.83;24.30;99837.81;5052994;28;20068;-47
2021/08/05 09:45:36;;;;;;;6.43;2.28;;;;;;;29.84;23.63;99839.47;5053889;28;20470;-48
2021/08/05 09:48:01;;;;;;;3.55;1.90;;;;;;;29.56;24.23;99836.53;5048033;28;20069;-49
2021/08/05 09:50:27;;;;;;;4.47;1.80;;;;;;;29.51;24.17;99842.81;5048578;28;20060;-50
2021/08/05 09:53:07;;;;;;;4.85;2.17;;;;;;;29.64;23.92;99849.91;5050998;28;20411;-49
2021/08/05 09:55:35;;;;;;;4.03;1.67;;;;;;;29.25;24.73;99833.22;5051225;28;20037;-49
2021/08/05 09:58:01;;;;;;;4.85;2.28;;;;;;;29.13;25.12;99840.72;5048236;28;20422;-46
2021/08/05 10:00:26;;;;;;;3.22;2.08;;;;;;;29.20;25.06;99845.00;5039034;28;20072;-54
2021/08/05 10:02:53;;;;;;;4.82;2.33;;;;;;;29.37;24.82;99831.22;5050544;28;20044;-47
2021/08/05 10:05:25;;;;;;;3.58;2.10;;;;;;;29.65;24.08;99831.44;5034328;28;20044;-51
2021/08/05 10:07:53;;;;;;;3.60;2.17;;;;;;;29.74;24.64;99824.41;5049509;28;20043;-48
2021/08/05 10:10:21;;;;;;;4.15;1.77;;;;;;;29.87;23.37;99837.03;5053800;28;20040;-46
2021/08/05 10:12:54;;;;;;;3.97;2.25;;;;;;;29.90;23.19;99820.00;5053902;28;20409;-46
2021/08/05 10:15:20;;;;;;;3.17;2.00;;;;;;;29.46;23.58;99808.81;5033860;28;20049;-45
2021/08/05 10:17:50;;;;;;;5.28;1.70;;;;;;;29.49;23.92;99844.16;5033873;28;20033;-48
2021/08/05 10:20:16;;;;;;;1.75;1.63;;;;;;;29.12;23.73;99831.63;5034175;28;20038;-49
2021/08/05 10:22:42;;;;;;;1.63;1.50;;;;;;;28.84;24.01;99846.22;5046892;28;20090;-46
2021/08/05 10:25:11;;;;;;;3.03;1.80;;;;;;;28.52;24.32;99839.22;5053700;28;20453;-48
2021/08/05 10:27:38;;;;;;;6.88;2.08;;;;;;;28.26;24.80;99833.16;5053963;28;20487;-44
2021/08/05 10:30:08;;;;;;;3.28;1.55;;;;;;;28.19;25.53;99827.75;5053909;28;20085;-45
2021/08/05 10:32:33;;;;;;;4.93;1.63;;;;;;;28.06;25.54;99823.31;5053364;28;20029;-45
2021/08/05 10:35:00;;;;;;;3.28;1.90;;;;;;;28.00;25.46;99821.53;5053580;28;20027;-50
2021/08/05 10:37:33;;;;;;;1.77;1.50;;;;;;;27.90;25.90;99813.88;5053926;28;20051;-47
2021/08/05 10:39:59;;;;;;;4.18;2.20;;;;;;;27.86;26.36;99817.38;5053421;28;20120;-46
2021/08/05 10:42:25;;;;;;;4.72;1.70;;;;;;;27.78;26.45;99815.81;5052802;28;20151;-47
2021/08/05 10:44:51;;;;;;;5.57;1.63;;;;;;;27.67;26.03;99822.09;5053265;28;20033;-48
2021/08/05 10:47:25;;;;;;;3.40;1.73;;;;;;;27.64;26.26;99827.00;5053660;28;20051;-46
2021/08/05 10:49:55;;;;;;;4.40;1.95;;;;;;;27.36;27.15;99817.50;5052962;28;20112;-47
2021/08/05 10:52:55;;;;;;;2.00;1.75;;;;;;;27.35;26.47;99826.81;5052846;28;20058;-44
2021/08/05 10:55:26;;;;;;;4.07;1.77;;;;;;;26.89;28.10;99806.34;5051351;28;20041;-47
2021/08/05 10:58:09;;;;;;;3.25;2.10;;;;;;;26.84;27.55;99817.16;5052862;28;20037;-46
2021/08/05 11:00:50;;;;;;;2.83;1.80;;;;;;;26.60;28.32;99822.53;5051588;28;20101;-44
2021/08/05 11:03:31;;;;;;;4.22;2.25;;;;;;;26.43;28.61;99823.16;5035110;28;20083;-45
2021/08/05 11:05:57;;;;;;;4.53;2.10;;;;;;;26.10;29.96;99818.84;5051631;28;20524;-47
2021/08/05 11:08:24;;;;;;;3.85;2.20;;;;;;;25.81;30.29;99804.78;5051401;28;20115;-46
2021/08/05 11:11:25;;;;;;;2.97;1.73;;;;;;;26.01;29.60;99832.00;5033052;28;20120;-50
2021/08/05 11:14:00;;;;;;;8.27;1.95;;;;;;;25.74;32.28;99831.41;5032845;28;20099;-47
2021/08/05 11:16:50;;;;;;;3.60;2.10;;;;;;;25.75;31.05;99844.91;5033281;28;20499;-49
2021/08/05 11:19:26;;;;;;;2.72;1.80;;;;;;;25.42;32.67;99847.88;5031361;28;20077;-50
2021/08/05 11:21:52;;;;;;;4.05;1.92;;;;;;;25.07;34.25;99855.44;5032845;28;20413;-50
2021/08/05 11:24:43;;;;;;;5.82;2.15;;;;;;;25.01;33.79;99850.84;5032941;28;20143;-50
2021/08/05 11:27:27;;;;;;;4.22;2.05;;;;;;;24.80;34.77;99847.34;5032582;28;20045;-46
2021/08/05 11:29:52;;;;;;;5.82;2.42;;;;;;;24.44;37.68;99840.53;5030714;28;20126;-46
2021/08/05 11:32:20;;;;;;;3.08;1.92;;;;;;;24.36;37.04;99844.34;5032940;28;20029;-48
2021/08/05 11:34:56;;;;;;;5.50;2.20;;;;;;;24.27;38.21;99840.16;5032867;28;20056;-49
2021/08/05 11:37:22;;;;;;;3.38;1.80;;;;;;;24.14;39.87;99827.34;5032957;28;20033;-45